createdAt,value
2018-10-01T00:01:01.293Z,11.1
2018-10-01T00:06:01.274Z,11.5
2018-10-01T00:11:01.283Z,11.3
2018-10-01T00:17:01.243Z,11.4
2018-10-01T00:22:01.230Z,11.3
2018-10-01T00:27:01.238Z,11.6
2018-10-01T00:32:01.266Z,11.5
2018-10-01T00:37:06.237Z,11.9
2018-10-01T00:42:06.244Z,12.2
2018-10-01T00:47:01.272Z,12.7
2018-10-01T00:52:06.247Z,13.3
2018-10-01T00:57:01.281Z,13.9
2018-10-01T01:02:01.266Z,14.4
2018-10-01T01:07:01.271Z,13.9
2018-10-01T01:12:01.232Z,14.3
2018-10-01T01:17:01.275Z,14.4
2018-10-01T01:27:01.287Z,13.7
2018-10-01T01:32:06.295Z,14.1
2018-10-01T01:37:06.247Z,14.3
2018-10-01T01:42:06.260Z,13.2
2018-10-01T01:47:01.266Z,13.9
2018-10-01T01:52:01.277Z,13.6
2018-10-01T01:57:01.271Z,12.8
2018-10-01T02:02:01.277Z,12.1
2018-10-01T02:07:01.273Z,12.6
2018-10-01T02:12:01.334Z,12.1
2018-10-01T02:17:01.278Z,11.8
2018-10-01T02:22:01.279Z,12.0
2018-10-01T02:27:01.263Z,12.2
2018-10-01T02:32:01.269Z,12.4
2018-10-01T02:37:01.273Z,11.8
2018-10-01T02:42:01.342Z,12.1
2018-10-01T02:47:01.277Z,12.2
2018-10-01T02:52:01.278Z,12.0
2018-10-01T02:57:01.284Z,11.3
2018-10-01T03:02:01.281Z,11.1
2018-10-01T03:07:01.239Z,11.8
2018-10-01T03:12:01.237Z,11.9
2018-10-01T03:17:01.238Z,11.8
2018-10-01T03:22:01.247Z,11.9
2018-10-01T03:27:01.250Z,12.1
2018-10-01T03:32:01.250Z,10.6
2018-10-01T03:37:01.237Z,10.3
2018-10-01T03:42:01.236Z,9.8
2018-10-01T03:47:01.231Z,9.6
2018-10-01T03:52:01.252Z,9.5
2018-10-01T03:57:01.240Z,10.2
2018-10-01T04:02:01.243Z,10.6
2018-10-01T04:07:01.246Z,10.9
2018-10-01T04:12:01.245Z,11.3
2018-10-01T04:17:01.232Z,11.5
2018-10-01T04:27:01.236Z,11.1
2018-10-01T04:32:01.231Z,10.6
2018-10-01T04:37:01.238Z,10.2
2018-10-01T04:47:01.249Z,10.0
2018-10-01T04:52:01.244Z,10.7
2018-10-01T04:57:01.316Z,11.0
2018-10-01T05:02:01.247Z,11.0
2018-10-01T05:07:01.246Z,10.8
2018-10-01T05:12:01.266Z,11.0
2018-10-01T05:22:01.242Z,10.8
2018-10-01T05:27:01.319Z,10.2
2018-10-01T05:32:01.315Z,10.4
2018-10-01T05:37:01.251Z,10.2
2018-10-01T05:47:01.262Z,9.7
2018-10-01T05:52:01.230Z,10.5
2018-10-01T05:57:01.234Z,10.3
2018-10-01T06:02:01.241Z,10.2
2018-10-01T06:07:01.241Z,10.5
2018-10-01T06:12:02.526Z,10.2
2018-10-01T06:22:01.251Z,10.6
2018-10-01T06:27:01.247Z,10.6
2018-10-01T06:32:01.234Z,10.2
2018-10-01T06:37:01.237Z,10.7
2018-10-01T06:42:01.425Z,10.4
2018-10-01T06:47:01.244Z,9.7
2018-10-01T06:52:01.314Z,9.2
2018-10-01T06:57:01.244Z,9.0
2018-10-01T07:02:01.240Z,8.4
2018-10-01T07:07:01.277Z,8.1
2018-10-01T07:12:01.268Z,8.0
2018-10-01T07:17:06.511Z,7.8
2018-10-01T07:22:06.240Z,8.2
2018-10-01T07:27:06.242Z,8.3
2018-10-01T07:32:01.266Z,8.2
2018-10-01T07:37:06.240Z,7.8
2018-10-01T07:42:01.271Z,7.8
2018-10-01T07:47:06.253Z,6.8
2018-10-01T07:52:01.273Z,6.0
2018-10-01T07:58:01.229Z,5.1
2018-10-01T08:03:01.234Z,4.4
2018-10-01T08:08:01.373Z,3.6
2018-10-01T08:13:06.240Z,3.4
2018-10-01T08:18:06.250Z,3.1
2018-10-01T08:23:01.343Z,2.7
2018-10-01T08:28:01.277Z,2.5
2018-10-01T08:38:06.594Z,2.3
2018-10-01T08:43:06.244Z,2.2
2018-10-01T08:48:01.264Z,2.4
2018-10-01T09:03:06.251Z,2.0
2018-10-01T09:08:01.372Z,2.2
2018-10-01T09:14:01.285Z,2.0
2018-10-01T09:19:01.238Z,1.8
2018-10-01T09:24:01.239Z,1.7
2018-10-01T09:29:01.314Z,1.8
2018-10-01T09:34:01.244Z,1.6
2018-10-01T09:44:01.328Z,1.7
2018-10-01T09:49:01.266Z,1.8
2018-10-01T09:54:01.236Z,1.9
2018-10-01T10:09:01.271Z,2.0
2018-10-01T10:19:06.244Z,2.1
2018-10-01T10:24:06.248Z,2.1
2018-10-01T10:34:01.288Z,2.3
2018-10-01T10:39:06.238Z,2.4
2018-10-01T10:44:01.436Z,2.2
2018-10-01T10:49:01.274Z,2.1
2018-10-01T10:59:01.303Z,2.0
2018-10-01T11:04:06.310Z,1.9
2018-10-01T11:09:01.245Z,1.8
2018-10-01T11:14:01.612Z,1.9
2018-10-01T11:19:01.834Z,1.8
2018-10-01T11:24:01.238Z,1.8
2018-10-01T11:34:01.235Z,1.9
2018-10-01T11:44:01.240Z,2.0
2018-10-01T11:49:01.253Z,2.2
2018-10-01T11:54:01.347Z,2.4
2018-10-01T11:59:02.156Z,2.6
2018-10-01T12:04:01.580Z,3.0
2018-10-01T12:10:01.470Z,3.1
2018-10-01T12:15:01.444Z,3.1
2018-10-01T12:20:01.281Z,3.1
2018-10-01T12:25:01.244Z,3.1
2018-10-01T12:30:01.310Z,3.1
2018-10-01T12:35:01.291Z,3.2
2018-10-01T12:45:01.454Z,3.0
2018-10-01T12:50:01.240Z,2.8
2018-10-01T12:55:01.236Z,2.7
2018-10-01T13:00:01.240Z,2.8
2018-10-01T13:10:01.494Z,3.0
2018-10-01T13:15:01.247Z,2.9
2018-10-01T13:20:01.251Z,2.8
2018-10-01T13:30:01.381Z,2.6
2018-10-01T13:35:01.234Z,2.4
2018-10-01T13:45:02.122Z,3.4
2018-10-01T13:50:01.244Z,3.2
2018-10-01T13:55:01.565Z,2.9
2018-10-01T14:00:01.315Z,2.9
2018-10-01T14:05:01.243Z,3.1
2018-10-01T14:10:01.256Z,2.2
2018-10-01T14:15:01.293Z,2.4
2018-10-01T14:20:01.864Z,2.6
2018-10-01T14:30:01.622Z,2.4
2018-10-01T14:35:01.237Z,2.2
2018-10-01T14:40:01.245Z,2.0
2018-10-01T14:45:01.244Z,2.0
2018-10-01T14:55:01.244Z,2.0
2018-10-01T15:00:06.541Z,2.0
2018-10-01T15:15:01.240Z,2.0
2018-10-01T15:20:01.244Z,2.0
2018-10-01T15:30:01.383Z,2.0
2018-10-01T15:46:01.238Z,2.0
2018-10-01T16:01:01.237Z,2.4
2018-10-01T16:11:01.301Z,2.4
2018-10-01T16:16:01.246Z,2.4
2018-10-01T16:26:01.237Z,2.0
2018-10-01T16:41:01.239Z,2.0
2018-10-01T16:46:01.235Z,2.2
2018-10-01T16:56:01.242Z,2.6
2018-10-01T17:01:01.245Z,2.8
2018-10-01T17:06:01.231Z,2.9
2018-10-01T17:11:01.244Z,2.8
2018-10-01T17:16:01.248Z,3.0
2018-10-01T17:21:01.236Z,2.6
2018-10-01T17:26:01.242Z,2.9
2018-10-01T17:31:01.244Z,3.0
2018-10-01T17:41:01.249Z,3.1
2018-10-01T17:46:01.245Z,3.1
2018-10-01T17:51:01.243Z,2.8
2018-10-01T17:56:01.230Z,2.6
2018-10-01T18:06:01.580Z,2.7
2018-10-01T18:11:01.235Z,2.9
2018-10-01T18:16:01.232Z,3.0
2018-10-01T18:21:01.240Z,3.2
2018-10-01T18:26:01.272Z,3.5
2018-10-01T18:31:01.241Z,3.3
2018-10-01T18:36:01.484Z,3.4
2018-10-01T18:41:01.251Z,3.6
2018-10-01T18:46:01.231Z,3.6
2018-10-01T18:51:01.366Z,3.9
2018-10-01T18:56:01.231Z,4.0
2018-10-01T19:01:01.302Z,4.2
2018-10-01T19:06:01.529Z,3.8
2018-10-01T19:11:06.313Z,3.8
2018-10-01T19:16:01.274Z,3.4
2018-10-01T19:21:01.515Z,3.4
2018-10-01T19:26:06.575Z,3.2
2018-10-01T19:31:06.242Z,3.2
2018-10-01T19:36:01.456Z,3.6
2018-10-01T19:41:01.439Z,3.9
2018-10-01T19:46:01.264Z,3.5
2018-10-01T19:51:06.590Z,3.9
2018-10-01T19:56:01.266Z,3.9
2018-10-01T20:01:01.280Z,3.7
2018-10-01T20:06:01.245Z,3.4
2018-10-01T20:11:01.470Z,3.6
2018-10-01T20:16:01.500Z,3.5
2018-10-01T20:21:01.322Z,3.8
2018-10-01T20:26:01.600Z,4.2
2018-10-01T20:31:01.236Z,4.6
2018-10-01T20:36:01.600Z,4.6
2018-10-01T20:41:01.499Z,4.8
2018-10-01T20:46:01.248Z,4.5
2018-10-01T20:51:01.230Z,4.3
2018-10-01T21:06:01.233Z,3.8
2018-10-01T21:11:01.240Z,4.2
2018-10-01T21:16:01.240Z,4.0
2018-10-01T21:21:01.244Z,3.7
2018-10-01T21:26:01.243Z,3.5
2018-10-01T21:31:01.971Z,3.5
2018-10-01T21:36:01.246Z,3.1
2018-10-01T21:41:01.334Z,3.2
2018-10-01T21:46:01.239Z,3.3
2018-10-01T21:51:01.242Z,3.5
2018-10-01T21:56:01.245Z,3.7
2018-10-01T22:01:01.243Z,3.8
2018-10-01T22:06:01.252Z,4.0
2018-10-01T22:11:01.273Z,3.8
2018-10-01T22:16:01.232Z,4.2
2018-10-01T22:21:01.234Z,4.0
2018-10-01T22:26:01.239Z,3.9
2018-10-01T22:31:01.243Z,3.8
2018-10-01T22:36:01.258Z,3.5
2018-10-01T22:41:01.243Z,3.1
2018-10-01T22:46:01.248Z,3.0
2018-10-01T22:51:01.242Z,2.8
2018-10-01T22:56:03.339Z,2.7
2018-10-01T23:01:01.245Z,3.1
2018-10-01T23:06:01.251Z,3.1
2018-10-01T23:11:01.236Z,3.0
2018-10-01T23:16:01.239Z,3.0
2018-10-01T23:21:01.246Z,2.5
2018-10-01T23:26:01.248Z,2.1
2018-10-01T23:31:01.241Z,2.0
2018-10-01T23:36:01.228Z,2.2
2018-10-01T23:41:01.229Z,2.8
2018-10-01T23:46:01.230Z,2.9
2018-10-01T23:51:01.300Z,3.1
2018-10-01T23:56:01.322Z,3.0
